createdAt,value
2018-02-27T00:02:22.944Z,23.05
2018-02-27T00:04:50.582Z,24.80
2018-02-27T00:07:18.068Z,26.37
2018-02-27T00:09:45.685Z,23.08
2018-02-27T00:12:13.187Z,32.38
2018-02-27T00:14:40.681Z,27.98
2018-02-27T00:17:08.216Z,23.55
2018-02-27T00:19:35.720Z,23.55
2018-02-27T00:22:03.222Z,26.55
2018-02-27T00:24:30.727Z,24.70
2018-02-27T00:26:58.233Z,26.98
2018-02-27T00:29:25.761Z,27.15
2018-02-27T00:31:53.273Z,26.20
2018-02-27T00:34:21.550Z,20.80
2018-02-27T00:36:49.820Z,24.58
2018-02-27T00:39:18.097Z,26.58
2018-02-27T00:41:46.356Z,28.98
2018-02-27T00:44:13.877Z,26.90
2018-02-27T00:46:41.381Z,29.20
2018-02-27T00:49:09.662Z,28.38
2018-02-27T00:51:37.938Z,24.65
2018-02-27T00:54:05.503Z,29.77
2018-02-27T00:56:33.093Z,25.60
2018-02-27T00:59:00.620Z,23.85
2018-02-27T01:01:28.141Z,26.60
2018-02-27T01:03:55.644Z,22.80
2018-02-27T01:06:23.195Z,23.50
2018-02-27T01:08:50.698Z,19.60
2018-02-27T01:11:18.213Z,24.70
2018-02-27T01:13:45.728Z,24.20
2018-02-27T01:16:13.333Z,18.70
2018-02-27T01:18:40.851Z,25.75
2018-02-27T01:21:08.375Z,23.52
2018-02-27T01:23:35.876Z,21.17
2018-02-27T01:26:04.153Z,22.73
2018-02-27T01:28:32.425Z,16.70
2018-02-27T01:31:00.703Z,18.42
2018-02-27T01:33:28.982Z,21.65
2018-02-27T01:35:57.415Z,16.40
2018-02-27T01:38:24.946Z,16.00
2018-02-27T01:40:52.431Z,15.93
2018-02-27T01:43:19.925Z,15.10
2018-02-27T01:45:48.333Z,24.12
2018-02-27T01:48:15.823Z,17.37
2018-02-27T01:50:43.432Z,21.90
2018-02-27T01:53:10.960Z,16.12
2018-02-27T01:55:38.568Z,22.15
2018-02-27T01:58:06.063Z,20.15
2018-02-27T02:00:33.593Z,16.62
2018-02-27T02:03:01.113Z,20.92
2018-02-27T02:05:29.396Z,17.98
2018-02-27T02:07:56.915Z,17.12
2018-02-27T02:10:24.510Z,20.30
2018-02-27T02:12:52.016Z,14.00
2018-02-27T02:15:19.629Z,17.87
2018-02-27T02:17:47.136Z,24.55
2018-02-27T02:20:14.717Z,18.62
2018-02-27T02:22:42.223Z,23.67
2018-02-27T02:25:09.723Z,14.85
2018-02-27T02:27:37.334Z,17.37
2018-02-27T02:30:04.835Z,21.42
2018-02-27T02:32:32.335Z,20.62
2018-02-27T02:34:59.836Z,17.77
2018-02-27T02:37:27.334Z,21.20
2018-02-27T02:39:54.895Z,13.93
2018-02-27T02:42:23.169Z,20.45
2018-02-27T02:44:51.443Z,17.85
2018-02-27T02:47:19.009Z,15.95
2018-02-27T02:49:46.516Z,14.52
2018-02-27T02:52:14.033Z,14.65
2018-02-27T02:54:41.539Z,15.63
2018-02-27T02:57:09.065Z,20.23
2018-02-27T02:59:36.577Z,19.85
2018-02-27T03:02:04.963Z,13.00
2018-02-27T03:04:33.233Z,19.73
2018-02-27T03:07:01.513Z,14.50
2018-02-27T03:09:29.031Z,20.52
2018-02-27T03:11:56.519Z,20.65
2018-02-27T03:14:24.796Z,29.10
2018-02-27T03:16:52.310Z,19.77
2018-02-27T03:19:19.799Z,19.52
2018-02-27T03:21:48.070Z,13.98
2018-02-27T03:24:16.337Z,19.48
2018-02-27T03:26:43.861Z,19.15
2018-02-27T03:29:11.369Z,22.13
2018-02-27T03:31:39.757Z,22.02
2018-02-27T03:34:07.243Z,18.87
2018-02-27T03:36:34.755Z,18.35
2018-02-27T03:39:03.033Z,21.55
2018-02-27T03:41:31.287Z,22.10
2018-02-27T03:43:58.804Z,17.00
2018-02-27T03:46:26.310Z,19.15
2018-02-27T03:48:53.820Z,19.02
2018-02-27T03:51:21.348Z,18.33
2018-02-27T03:53:48.847Z,16.90
2018-02-27T03:56:16.336Z,24.42
2018-02-27T03:58:43.923Z,21.48
2018-02-27T04:01:11.425Z,22.83
2018-02-27T04:03:38.940Z,19.08
2018-02-27T04:06:06.479Z,25.50
2018-02-27T04:08:34.759Z,13.85
2018-02-27T04:11:03.029Z,15.18
2018-02-27T04:13:31.311Z,20.17
2018-02-27T04:15:58.824Z,21.15
2018-02-27T04:18:26.321Z,18.17
2018-02-27T04:20:53.845Z,16.70
2018-02-27T04:23:21.357Z,18.77
2018-02-27T04:25:48.863Z,21.50
2018-02-27T04:28:17.154Z,35.33
2018-02-27T04:30:45.424Z,21.15
2018-02-27T04:33:13.691Z,22.55
2018-02-27T04:35:41.345Z,25.92
2018-02-27T04:38:08.954Z,25.67
2018-02-27T04:40:36.444Z,25.12
2018-02-27T04:43:04.046Z,22.83
2018-02-27T04:45:32.329Z,25.85
2018-02-27T04:47:59.834Z,19.48
2018-02-27T04:50:27.336Z,20.62
2018-02-27T04:52:54.891Z,22.90
2018-02-27T04:55:22.398Z,20.00
2018-02-27T04:57:49.897Z,17.27
2018-02-27T05:00:18.187Z,22.25
2018-02-27T05:02:45.751Z,28.15
2018-02-27T05:05:13.320Z,29.48
2018-02-27T05:07:40.838Z,27.25
2018-02-27T05:10:09.104Z,22.25
2018-02-27T05:12:36.716Z,17.77
2018-02-27T05:15:04.273Z,24.17
2018-02-27T05:17:31.781Z,26.12
2018-02-27T05:20:00.059Z,25.05
2018-02-27T05:22:27.635Z,22.13
2018-02-27T05:24:55.925Z,22.60
2018-02-27T05:27:23.437Z,20.70
2018-02-27T05:29:50.930Z,26.98
2018-02-27T05:32:18.498Z,26.85
2018-02-27T05:34:46.021Z,26.62
2018-02-27T05:37:14.328Z,19.30
2018-02-27T05:39:41.833Z,23.48
2018-02-27T05:42:09.342Z,23.35
2018-02-27T05:44:36.854Z,27.25
2018-02-27T05:47:04.363Z,24.73
2018-02-27T05:49:31.927Z,25.42
2018-02-27T05:51:59.522Z,21.98
2018-02-27T05:54:27.057Z,32.30
2018-02-27T05:56:54.568Z,21.17
2018-02-27T05:59:22.848Z,25.80
2018-02-27T06:01:51.119Z,23.38
2018-02-27T06:04:18.688Z,26.87
2018-02-27T06:06:46.199Z,26.33
2018-02-27T06:09:13.712Z,22.02
2018-02-27T06:11:41.218Z,27.27
2018-02-27T06:14:09.490Z,27.37
2018-02-27T06:16:37.021Z,24.55
2018-02-27T06:19:04.531Z,23.60
2018-02-27T06:21:32.814Z,29.33
2018-02-27T06:24:00.372Z,28.67
2018-02-27T06:26:27.887Z,23.70
2018-02-27T06:28:55.397Z,26.30
2018-02-27T06:31:22.931Z,31.98
2018-02-27T06:33:51.226Z,23.77
2018-02-27T06:36:18.723Z,26.60
2018-02-27T06:38:46.249Z,25.83
2018-02-27T06:41:13.752Z,30.23
2018-02-27T06:43:41.287Z,29.98
2018-02-27T06:46:08.799Z,27.10
2018-02-27T06:48:37.058Z,34.05
2018-02-27T06:51:04.589Z,27.42
2018-02-27T06:53:32.191Z,32.00
2018-02-27T06:56:00.459Z,31.35
2018-02-27T06:58:28.737Z,28.48
2018-02-27T07:00:57.002Z,25.12
2018-02-27T07:03:25.291Z,29.55
2018-02-27T07:05:52.815Z,26.35
2018-02-27T07:08:20.330Z,24.70
2018-02-27T07:10:47.869Z,33.55
2018-02-27T07:13:15.391Z,30.83
2018-02-27T07:15:42.898Z,29.35
2018-02-27T07:18:10.413Z,30.37
2018-02-27T07:20:38.732Z,33.33
2018-02-27T07:23:06.273Z,29.20
2018-02-27T07:25:33.785Z,34.15
2018-02-27T07:28:01.284Z,27.92
2018-02-27T07:30:28.803Z,24.95
2018-02-27T07:32:56.299Z,32.78
2018-02-27T07:35:23.833Z,19.17
2018-02-27T07:37:52.107Z,26.17
2018-02-27T07:40:20.399Z,24.80
2018-02-27T07:42:47.908Z,22.02
2018-02-27T07:45:15.425Z,29.23
2018-02-27T07:47:42.931Z,29.55
2018-02-27T07:50:10.441Z,32.42
2018-02-27T07:52:38.017Z,28.87
2018-02-27T07:55:06.262Z,24.63
2018-02-27T07:57:33.768Z,26.87
2018-02-27T08:00:01.268Z,34.80
2018-02-27T08:02:29.537Z,28.70
2018-02-27T08:04:57.824Z,26.35
2018-02-27T08:07:25.326Z,30.55
2018-02-27T08:09:52.834Z,26.67
2018-02-27T08:12:20.347Z,34.90
2018-02-27T08:14:47.856Z,29.73
2018-02-27T08:17:15.364Z,27.77
2018-02-27T08:19:42.893Z,24.95
2018-02-27T08:22:10.398Z,26.23
2018-02-27T08:24:37.887Z,26.27
2018-02-27T08:27:05.416Z,28.45
2018-02-27T08:29:33.679Z,23.70
2018-02-27T08:32:01.268Z,25.10
2018-02-27T08:34:28.813Z,28.40
2018-02-27T08:36:57.091Z,31.85
2018-02-27T08:39:25.413Z,27.67
2018-02-27T08:41:52.939Z,27.77
2018-02-27T08:44:20.439Z,31.02
2018-02-27T08:46:48.012Z,28.67
2018-02-27T08:49:15.496Z,28.30
2018-02-27T08:51:43.764Z,27.90
2018-02-27T08:54:12.044Z,26.55
2018-02-27T08:56:40.309Z,26.33
2018-02-27T08:59:08.590Z,28.00
2018-02-27T09:01:36.867Z,31.33
2018-02-27T09:04:05.131Z,27.13
2018-02-27T09:06:33.429Z,29.50
2018-02-27T09:09:00.941Z,29.27
2018-02-27T09:11:28.439Z,29.73
2018-02-27T09:13:56.712Z,26.90
2018-02-27T09:16:24.231Z,26.53
2018-02-27T09:18:51.749Z,30.93
2018-02-27T09:21:19.293Z,28.50
2018-02-27T09:23:46.787Z,32.07
2018-02-27T09:26:14.398Z,25.20
2018-02-27T09:28:41.959Z,30.50
2018-02-27T09:31:09.448Z,32.00
2018-02-27T09:33:36.970Z,32.93
2018-02-27T09:36:05.229Z,26.50
2018-02-27T09:38:33.526Z,27.90
2018-02-27T09:41:01.150Z,33.73
2018-02-27T09:43:28.731Z,29.10
2018-02-27T09:45:57.016Z,29.77
2018-02-27T09:48:24.535Z,26.50
2018-02-27T09:50:52.041Z,27.33
2018-02-27T09:53:19.586Z,30.03
2018-02-27T09:55:47.085Z,29.20
2018-02-27T09:58:14.579Z,26.20
2018-02-27T10:00:42.856Z,26.60
2018-02-27T10:03:11.106Z,26.30
2018-02-27T10:05:38.710Z,28.03
2018-02-27T10:08:06.216Z,27.60
2018-02-27T10:10:33.736Z,29.67
2018-02-27T10:13:01.265Z,28.30
2018-02-27T10:15:28.767Z,29.83
2018-02-27T10:17:56.271Z,24.70
2018-02-27T10:20:24.523Z,31.53
2018-02-27T10:22:52.037Z,32.20
2018-02-27T10:25:19.544Z,29.07
2018-02-27T10:27:47.051Z,28.47
2018-02-27T10:30:14.561Z,28.97
2018-02-27T10:32:42.091Z,31.33
2018-02-27T10:35:09.604Z,33.50
2018-02-27T10:37:37.124Z,29.03
2018-02-27T10:40:04.633Z,28.03
2018-02-27T10:42:32.182Z,28.07
2018-02-27T10:44:59.685Z,31.00
2018-02-27T10:47:27.225Z,25.23
2018-02-27T10:49:54.732Z,23.70
2018-02-27T10:52:22.273Z,26.00
2018-02-27T10:54:49.777Z,28.00
2018-02-27T10:57:17.268Z,28.90
2018-02-27T10:59:44.767Z,26.90
2018-02-27T11:02:13.033Z,32.30
2018-02-27T11:04:41.340Z,26.73
2018-02-27T11:07:08.836Z,28.20
2018-02-27T11:09:36.399Z,25.25
2018-02-27T11:12:03.923Z,28.43
2018-02-27T11:14:31.413Z,27.93
2018-02-27T11:16:59.001Z,24.57
2018-02-27T11:19:27.343Z,24.43
2018-02-27T11:21:54.831Z,31.00
2018-02-27T11:24:23.097Z,30.17
2018-02-27T11:26:51.363Z,30.77
2018-02-27T11:29:18.961Z,32.33
2018-02-27T11:31:46.489Z,27.37
2018-02-27T11:34:14.751Z,22.10
2018-02-27T11:36:42.254Z,26.12
2018-02-27T11:39:09.757Z,25.50
2018-02-27T11:41:37.272Z,33.37
2018-02-27T11:44:04.912Z,26.87
2018-02-27T11:46:32.460Z,26.00
2018-02-27T11:49:00.738Z,38.60
2018-02-27T11:51:28.247Z,24.93
2018-02-27T11:53:55.784Z,23.60
2018-02-27T11:56:23.323Z,24.63
2018-02-27T11:58:50.846Z,22.60
2018-02-27T12:01:19.117Z,27.37
2018-02-27T12:03:46.631Z,30.00
2018-02-27T12:06:14.266Z,21.33
2018-02-27T12:08:41.764Z,24.47
2018-02-27T12:11:09.269Z,26.90
2018-02-27T12:13:37.713Z,26.30
2018-02-27T12:16:05.239Z,19.37
2018-02-27T12:18:32.787Z,22.00
2018-02-27T12:21:00.287Z,27.87
2018-02-27T12:23:27.803Z,26.87
2018-02-27T12:25:55.308Z,28.47
2018-02-27T12:28:22.854Z,25.07
2018-02-27T12:30:50.448Z,27.60
2018-02-27T12:33:17.985Z,23.60
2018-02-27T12:35:46.258Z,22.77
2018-02-27T12:38:14.565Z,21.92
2018-02-27T12:40:42.094Z,23.43
2018-02-27T12:43:10.364Z,25.23
2018-02-27T12:45:38.645Z,26.83
2018-02-27T12:48:06.906Z,27.05
2018-02-27T12:50:34.412Z,26.67
2018-02-27T12:53:01.952Z,23.70
2018-02-27T12:55:29.477Z,24.92
2018-02-27T12:57:57.077Z,19.05
2018-02-27T13:00:24.595Z,25.55
2018-02-27T13:02:52.116Z,19.12
2018-02-27T13:05:19.606Z,26.67
2018-02-27T13:07:47.215Z,21.15
2018-02-27T13:10:14.780Z,23.27
2018-02-27T13:12:42.545Z,20.80
2018-02-27T13:15:10.063Z,21.10
2018-02-27T13:17:38.331Z,22.00
2018-02-27T13:20:06.616Z,19.15
2018-02-27T13:22:34.886Z,22.92
2018-02-27T13:25:03.181Z,23.30
2018-02-27T13:27:30.686Z,20.42
2018-02-27T13:29:58.204Z,19.65
2018-02-27T13:32:25.712Z,20.62
2018-02-27T13:34:53.313Z,18.05
2018-02-27T13:37:20.823Z,20.25
2018-02-27T13:39:49.578Z,20.17
2018-02-27T13:42:17.094Z,21.45
2018-02-27T13:44:45.370Z,14.95
2018-02-27T13:47:12.905Z,20.25
2018-02-27T13:49:41.190Z,18.17
2018-02-27T13:52:09.511Z,30.62
2018-02-27T13:54:37.029Z,13.30
2018-02-27T13:57:05.308Z,17.33
2018-02-27T13:59:33.831Z,28.10
2018-02-27T14:02:01.397Z,20.35
2018-02-27T14:04:28.911Z,16.00
2018-02-27T14:06:56.436Z,18.83
2018-02-27T14:09:23.948Z,18.30
2018-02-27T14:11:51.466Z,27.40
2018-02-27T14:14:19.765Z,18.60
2018-02-27T14:16:47.282Z,16.12
2018-02-27T14:19:14.896Z,17.58
2018-02-27T14:21:42.440Z,14.13
2018-02-27T14:24:09.954Z,21.52
2018-02-27T14:26:37.672Z,17.42
2018-02-27T14:29:05.166Z,20.27
2018-02-27T14:31:32.769Z,17.67
2018-02-27T14:34:00.289Z,21.90
2018-02-27T14:36:27.826Z,19.30
2018-02-27T14:38:55.445Z,16.02
2018-02-27T14:41:22.958Z,22.30
2018-02-27T14:43:50.683Z,18.60
2018-02-27T14:46:18.195Z,20.95
2018-02-27T14:48:46.598Z,22.10
2018-02-27T14:51:14.099Z,23.12
2018-02-27T14:53:41.607Z,21.67
2018-02-27T14:56:09.146Z,22.00
2018-02-27T14:58:37.446Z,19.08
2018-02-27T15:01:05.018Z,20.55
2018-02-27T15:03:32.517Z,17.70
2018-02-27T15:06:00.046Z,17.45
2018-02-27T15:08:27.548Z,13.77
2018-02-27T15:10:55.920Z,11.85
2018-02-27T15:13:24.337Z,18.55
2018-02-27T15:15:51.853Z,10.88
2018-02-27T15:18:20.123Z,13.20
2018-02-27T15:20:47.643Z,9.38
2018-02-27T15:23:15.809Z,17.23
2018-02-27T15:25:43.773Z,12.15
2018-02-27T15:28:11.299Z,15.05
2018-02-27T15:30:39.575Z,23.58
2018-02-27T15:33:07.856Z,14.77
2018-02-27T15:35:35.364Z,14.13
2018-02-27T15:38:02.878Z,16.02
2018-02-27T15:40:30.397Z,19.30
2018-02-27T15:42:57.921Z,17.73
2018-02-27T15:45:25.469Z,21.90
2018-02-27T15:47:53.009Z,18.60
2018-02-27T15:50:20.539Z,22.17
2018-02-27T15:52:48.833Z,17.87
2018-02-27T15:55:16.346Z,18.02
2018-02-27T15:57:43.860Z,17.65
2018-02-27T16:00:11.414Z,18.90
2018-02-27T16:02:38.941Z,17.95
2018-02-27T16:05:07.251Z,18.70
2018-02-27T16:07:34.757Z,19.45
2018-02-27T16:10:02.270Z,25.92
2018-02-27T16:12:29.797Z,18.45
2018-02-27T16:14:57.337Z,23.23
2018-02-27T16:17:24.860Z,22.70
2018-02-27T16:19:52.396Z,24.45
2018-02-27T16:22:19.905Z,20.75
2018-02-27T16:24:47.434Z,21.75
2018-02-27T16:27:14.951Z,21.05
2018-02-27T16:29:42.483Z,20.23
2018-02-27T16:32:10.892Z,21.42
2018-02-27T16:34:38.398Z,20.67
2018-02-27T16:37:05.895Z,17.15
2018-02-27T16:39:33.468Z,20.30
2018-02-27T16:42:01.015Z,20.00
2018-02-27T16:44:28.535Z,22.35
2018-02-27T16:46:56.027Z,20.48
2018-02-27T16:49:23.719Z,27.08
2018-02-27T16:51:51.225Z,21.55
2018-02-27T16:54:19.505Z,17.48
2018-02-27T16:56:47.779Z,19.92
2018-02-27T16:59:16.052Z,23.87
2018-02-27T17:01:44.330Z,20.02
2018-02-27T17:04:12.589Z,26.10
2018-02-27T17:06:40.877Z,20.27
2018-02-27T17:09:09.145Z,20.67
2018-02-27T17:11:37.433Z,23.60
2018-02-27T17:14:05.840Z,20.50
2018-02-27T17:16:33.335Z,22.13
2018-02-27T17:19:00.858Z,21.40
2018-02-27T17:21:28.495Z,18.37
2018-02-27T17:23:56.009Z,24.87
2018-02-27T17:26:23.600Z,23.77
2018-02-27T17:28:51.135Z,24.35
2018-02-27T17:31:18.745Z,25.00
2018-02-27T17:33:46.285Z,25.30
2018-02-27T17:36:14.029Z,28.77
2018-02-27T17:38:41.589Z,27.90
2018-02-27T17:41:10.000Z,20.23
2018-02-27T17:43:37.530Z,22.75
2018-02-27T17:46:05.817Z,17.25
2018-02-27T17:48:33.318Z,27.30
2018-02-27T17:51:00.971Z,22.02
2018-02-27T17:53:28.476Z,25.48
2018-02-27T17:55:56.859Z,21.45
2018-02-27T17:58:24.374Z,18.92
2018-02-27T18:00:51.957Z,22.20
2018-02-27T18:03:20.270Z,22.83
2018-02-27T18:05:47.825Z,20.55
2018-02-27T18:08:15.377Z,28.35
2018-02-27T18:10:42.883Z,28.67
2018-02-27T18:13:10.393Z,20.37
2018-02-27T18:15:37.883Z,30.10
2018-02-27T18:18:05.491Z,27.55
2018-02-27T18:20:33.770Z,25.70
2018-02-27T18:23:01.302Z,24.92
2018-02-27T18:25:28.837Z,26.90
2018-02-27T18:27:56.381Z,25.65
2018-02-27T18:30:23.894Z,22.80
2018-02-27T18:32:52.292Z,31.37
2018-02-27T18:35:19.857Z,23.98
2018-02-27T18:37:47.366Z,29.55
2018-02-27T18:40:14.879Z,23.55
2018-02-27T18:42:42.376Z,27.08
2018-02-27T18:45:09.904Z,23.33
2018-02-27T18:47:37.421Z,26.65
2018-02-27T18:50:04.938Z,25.85
2018-02-27T18:52:33.220Z,28.92
2018-02-27T18:55:00.727Z,26.83
2018-02-27T18:57:28.261Z,29.83
2018-02-27T18:59:55.756Z,24.02
2018-02-27T19:02:23.276Z,22.30
2018-02-27T19:04:50.845Z,26.10
2018-02-27T19:07:18.351Z,26.95
2018-02-27T19:09:45.848Z,26.80
2018-02-27T19:12:13.364Z,35.45
2018-02-27T19:14:40.872Z,28.70
2018-02-27T19:17:08.373Z,28.05
2018-02-27T19:19:35.905Z,21.90
2018-02-27T19:22:03.546Z,27.80
2018-02-27T19:24:31.106Z,26.65
2018-02-27T19:26:58.658Z,23.80
2018-02-27T19:29:26.167Z,26.05
2018-02-27T19:31:53.700Z,22.58
2018-02-27T19:34:21.210Z,27.50
2018-02-27T19:36:49.509Z,26.02
2018-02-27T19:39:17.021Z,31.10
2018-02-27T19:41:44.560Z,20.60
2018-02-27T19:44:12.083Z,22.33
2018-02-27T19:46:39.606Z,26.40
2018-02-27T19:49:07.889Z,25.80
2018-02-27T19:51:36.289Z,25.37
2018-02-27T19:54:03.821Z,35.13
2018-02-27T19:56:32.114Z,24.37
2018-02-27T19:58:59.672Z,24.80
2018-02-27T20:01:27.231Z,23.05
2018-02-27T20:03:54.742Z,23.75
2018-02-27T20:06:22.245Z,25.30
2018-02-27T20:08:49.920Z,27.87
2018-02-27T20:11:17.581Z,23.95
2018-02-27T20:13:45.101Z,27.50
2018-02-27T20:16:13.462Z,24.40
2018-02-27T20:18:40.969Z,25.73
2018-02-27T20:21:08.622Z,25.33
2018-02-27T20:23:41.831Z,22.42
2018-02-27T20:26:09.362Z,28.15
2018-02-27T20:28:42.517Z,29.15
2018-02-27T20:31:10.029Z,27.23
2018-02-27T20:33:37.700Z,26.08
2018-02-27T20:36:05.319Z,24.87
2018-02-27T20:38:39.225Z,24.48
2018-02-27T20:41:07.609Z,26.42
2018-02-27T20:43:35.121Z,32.92
2018-02-27T20:46:02.614Z,25.75
2018-02-27T20:48:30.995Z,27.83
2018-02-27T20:50:58.517Z,30.23
2018-02-27T20:53:26.788Z,34.72
2018-02-27T20:55:54.295Z,31.40
2018-02-27T20:58:22.086Z,24.25
2018-02-27T21:00:49.619Z,30.80
2018-02-27T21:03:17.129Z,28.23
2018-02-27T21:05:44.620Z,29.98
2018-02-27T21:08:12.134Z,24.08
2018-02-27T21:10:39.655Z,26.30
2018-02-27T21:13:07.172Z,30.77
2018-02-27T21:15:35.464Z,35.97
2018-02-27T21:18:03.760Z,31.77
2018-02-27T21:20:31.249Z,27.37
2018-02-27T21:22:58.756Z,36.45
2018-02-27T21:25:26.265Z,25.30
2018-02-27T21:27:53.778Z,30.55
2018-02-27T21:30:21.272Z,32.63
2018-02-27T21:32:48.782Z,34.28
2018-02-27T21:35:16.351Z,32.83
2018-02-27T21:37:43.853Z,21.42
2018-02-27T21:40:11.372Z,27.67
2018-02-27T21:42:38.887Z,32.15
2018-02-27T21:45:06.472Z,34.67
2018-02-27T21:47:34.026Z,32.63
2018-02-27T21:50:02.402Z,25.37
2018-02-27T21:52:29.903Z,28.98
2018-02-27T21:54:57.399Z,30.27
2018-02-27T21:57:25.665Z,34.42
2018-02-27T21:59:53.197Z,29.52
2018-02-27T22:02:20.696Z,27.30
2018-02-27T22:04:49.023Z,31.37
2018-02-27T22:07:16.626Z,30.95
2018-02-27T22:09:44.911Z,29.12
2018-02-27T22:12:12.467Z,31.80
2018-02-27T22:14:39.985Z,33.80
2018-02-27T22:17:07.593Z,35.25
2018-02-27T22:19:35.155Z,34.28
2018-02-27T22:22:02.701Z,30.48
2018-02-27T22:24:30.204Z,28.60
2018-02-27T22:26:57.712Z,32.20
2018-02-27T22:29:25.283Z,32.10
2018-02-27T22:31:52.788Z,35.10
2018-02-27T22:34:20.306Z,28.45
2018-02-27T22:36:47.858Z,36.55
2018-02-27T22:39:15.365Z,33.17
2018-02-27T22:41:42.878Z,41.17
2018-02-27T22:44:10.400Z,31.05
2018-02-27T22:46:38.693Z,30.85
2018-02-27T22:49:06.249Z,29.10
2018-02-27T22:51:33.771Z,31.05
2018-02-27T22:54:01.264Z,34.85
2018-02-27T22:56:28.812Z,26.10
2018-02-27T22:58:56.312Z,32.10
2018-02-27T23:01:23.923Z,31.73
2018-02-27T23:03:52.172Z,28.92
2018-02-27T23:06:19.692Z,28.42
2018-02-27T23:08:47.224Z,32.58
2018-02-27T23:11:14.733Z,36.35
2018-02-27T23:13:42.234Z,28.25
2018-02-27T23:16:09.745Z,28.87
2018-02-27T23:18:37.281Z,37.65
2018-02-27T23:21:04.798Z,29.10
2018-02-27T23:23:33.052Z,33.58
2018-02-27T23:29:04.299Z,27.83
2018-02-27T23:31:33.168Z,27.95
2018-02-27T23:34:07.621Z,35.00
2018-02-27T23:36:35.901Z,33.67
2018-02-27T23:39:03.392Z,25.45
2018-02-27T23:41:30.924Z,29.77
2018-02-27T23:43:59.196Z,30.50
2018-02-27T23:46:27.489Z,26.33
2018-02-27T23:48:55.860Z,26.00
2018-02-27T23:51:24.127Z,32.38
2018-02-27T23:53:52.406Z,25.08
2018-02-27T23:56:20.689Z,32.75
2018-02-27T23:58:48.210Z,33.13
